Time;durP1;ratioP1;P1;durP2;ratioP2;P2;SDS_P1;SDS_P2;PMS_P1;PMS_P2;Temp;Humidity;BMP_temperature;BMP_pressure;BME280_temperature;BME280_humidity;BME280_pressure;Samples;Min_cycle;Max_cycle;Signal;HPM_P1;HPM_P2
2022/06/25 00:01:24;;;;;;;5.23;2.73;;;18.80;99.90;;;;;;5002573;28;20454;-82
2022/06/25 00:03:51;;;;;;;3.70;2.43;;;18.80;99.90;;;;;;5000967;28;20491;-83
2022/06/25 00:06:18;;;;;;;3.43;2.20;;;18.70;99.90;;;;;;5002036;28;20507;-82
2022/06/25 00:08:46;;;;;;;3.67;2.33;;;18.70;99.90;;;;;;4999173;28;20474;-82
2022/06/25 00:13:58;;;;;;;4.47;2.80;;;18.70;99.90;;;;;;5001718;28;20847;-80
2022/06/25 00:16:25;;;;;;;2.57;2.17;;;18.70;99.90;;;;;;4998999;28;20570;-82
2022/06/25 00:18:52;;;;;;;2.93;2.20;;;18.70;99.90;;;;;;5000016;28;20469;-83
2022/06/25 00:21:19;;;;;;;2.53;2.10;;;18.60;99.90;;;;;;4981125;28;20531;-83
2022/06/25 00:23:45;;;;;;;3.27;2.37;;;18.60;99.90;;;;;;4999084;28;20490;-81
2022/06/25 00:26:13;;;;;;;5.60;2.40;;;18.60;99.90;;;;;;4999620;28;20464;-82
2022/06/25 00:28:40;;;;;;;4.00;2.10;;;18.60;99.90;;;;;;5000082;28;20882;-83
2022/06/25 00:31:07;;;;;;;6.03;2.20;;;18.60;99.90;;;;;;5009985;28;20476;-80
2022/06/25 00:33:34;;;;;;;3.07;2.20;;;18.60;99.90;;;;;;5000384;28;20540;-81
2022/06/25 00:36:01;;;;;;;3.57;2.23;;;18.60;99.90;;;;;;4998210;28;20481;-81
2022/06/25 00:38:28;;;;;;;4.23;2.43;;;18.50;99.90;;;;;;4998511;28;20871;-81
2022/06/25 00:40:55;;;;;;;2.93;2.00;;;18.50;99.90;;;;;;4998565;28;20485;-81
2022/06/25 00:43:23;;;;;;;4.07;1.87;;;18.50;99.90;;;;;;4998564;28;20468;-82
2022/06/25 00:45:50;;;;;;;3.13;1.70;;;18.50;99.90;;;;;;4998243;28;20872;-82
2022/06/25 00:48:16;;;;;;;2.67;1.83;;;18.40;99.90;;;;;;4997416;28;20471;-82
2022/06/25 00:50:43;;;;;;;5.63;2.00;;;18.40;99.90;;;;;;4995950;28;20456;-82
2022/06/25 00:53:12;;;;;;;4.20;2.27;;;18.40;99.90;;;;;;4996319;28;20487;-81
2022/06/25 00:55:39;;;;;;;3.57;2.30;;;18.50;99.90;;;;;;4994205;28;20466;-82
2022/06/25 00:58:11;;;;;;;3.00;1.93;;;18.40;99.90;;;;;;4996726;28;20453;-82
2022/06/25 01:00:40;;;;;;;4.23;2.27;;;18.40;99.90;;;;;;4996692;28;20464;-82
2022/06/25 01:03:07;;;;;;;2.53;1.67;;;18.30;99.90;;;;;;4998326;28;20974;-80
2022/06/25 01:05:34;;;;;;;5.50;1.77;;;18.30;99.90;;;;;;4997865;28;20452;-81
2022/06/25 01:08:01;;;;;;;3.00;2.00;;;18.30;99.90;;;;;;4997094;28;20515;-80
2022/06/25 01:10:28;;;;;;;4.90;2.37;;;18.30;99.90;;;;;;4998392;28;20551;-82
2022/06/25 01:12:55;;;;;;;3.87;2.37;;;18.30;99.90;;;;;;4997630;28;20513;-81
2022/06/25 01:15:22;;;;;;;3.90;2.33;;;18.30;99.90;;;;;;4998359;28;20954;-80
2022/06/25 01:17:51;;;;;;;3.53;2.17;;;18.20;99.90;;;;;;4997020;28;20465;-79
2022/06/25 01:20:20;;;;;;;4.70;1.90;;;18.20;99.90;;;;;;4996669;28;20559;-82
2022/06/25 01:22:49;;;;;;;3.43;1.97;;;18.20;99.90;;;;;;4998276;28;20458;-81
2022/06/25 01:25:16;;;;;;;3.10;1.93;;;18.20;99.90;;;;;;4997480;28;20444;-80
2022/06/25 01:27:43;;;;;;;3.70;2.50;;;18.20;99.90;;;;;;4997309;28;20490;-81
2022/06/25 01:30:13;;;;;;;3.63;1.87;;;18.20;99.90;;;;;;4997372;28;21180;-79
2022/06/25 01:32:40;;;;;;;4.57;2.20;;;18.20;99.90;;;;;;4997667;28;20685;-82
2022/06/25 01:35:09;;;;;;;3.07;1.80;;;18.20;99.90;;;;;;4997775;28;20541;-81
2022/06/25 01:37:36;;;;;;;2.73;2.13;;;18.20;99.90;;;;;;4996704;28;20502;-82
2022/06/25 01:40:05;;;;;;;3.03;2.40;;;18.10;99.90;;;;;;4997106;28;20538;-82
2022/06/25 01:45:16;;;;;;;2.10;1.70;;;18.20;99.90;;;;;;4990556;28;20442;-81
2022/06/25 01:47:43;;;;;;;2.40;1.70;;;18.20;99.90;;;;;;4997620;28;20456;-83
2022/06/25 01:50:10;;;;;;;2.93;2.20;;;18.10;99.90;;;;;;4999148;28;20550;-81
2022/06/25 01:52:37;;;;;;;3.37;2.53;;;18.20;99.90;;;;;;5001592;28;20572;-82
2022/06/25 01:55:06;;;;;;;4.40;2.17;;;18.10;99.90;;;;;;5001397;28;20497;-83
2022/06/25 01:57:33;;;;;;;2.80;1.93;;;18.10;99.90;;;;;;5001614;28;20547;-80
2022/06/25 02:00:00;;;;;;;7.00;2.33;;;18.10;99.90;;;;;;5000282;28;20471;-82
2022/06/25 02:02:27;;;;;;;4.50;2.33;;;18.10;99.90;;;;;;5001016;28;20544;-83
2022/06/25 02:04:54;;;;;;;2.50;2.00;;;18.10;99.90;;;;;;5001383;28;20453;-82
2022/06/25 02:07:21;;;;;;;3.53;1.97;;;18.10;99.90;;;;;;4999542;28;21036;-82
2022/06/25 02:09:47;;;;;;;5.33;2.23;;;18.10;99.90;;;;;;5001138;28;21274;-81
2022/06/25 02:12:16;;;;;;;3.57;2.33;;;18.10;99.90;;;;;;5001257;28;20491;-82
2022/06/25 02:14:43;;;;;;;4.00;2.47;;;18.10;99.90;;;;;;5000657;28;20484;-80
2022/06/25 02:17:09;;;;;;;4.13;2.37;;;18.00;99.90;;;;;;5001640;28;20471;-80
2022/06/25 02:19:36;;;;;;;4.10;2.30;;;18.00;99.90;;;;;;5001419;28;20515;-81
2022/06/25 02:22:03;;;;;;;3.93;2.53;;;18.00;99.90;;;;;;5001903;28;20452;-82
2022/06/25 02:24:30;;;;;;;5.80;2.50;;;18.00;99.90;;;;;;5001754;28;20562;-82
2022/06/25 02:26:57;;;;;;;6.30;2.23;;;18.00;99.90;;;;;;5002204;28;20459;-81
2022/06/25 02:29:25;;;;;;;4.93;2.57;;;18.00;99.90;;;;;;5001263;28;20526;-82
2022/06/25 02:31:52;;;;;;;3.70;2.07;;;18.00;99.90;;;;;;5004793;28;20548;-81
2022/06/25 02:34:19;;;;;;;5.20;2.70;;;18.00;99.90;;;;;;5015907;28;20453;-83
2022/06/25 02:36:46;;;;;;;3.40;2.50;;;18.00;99.90;;;;;;5002587;28;20487;-80
2022/06/25 02:39:13;;;;;;;3.63;2.40;;;17.90;99.90;;;;;;5004024;28;20472;-81
2022/06/25 02:41:40;;;;;;;5.60;2.80;;;18.00;99.90;;;;;;5009097;28;20479;-83
2022/06/25 02:44:06;;;;;;;4.87;2.87;;;18.00;99.90;;;;;;5000723;28;20961;-82
2022/06/25 02:46:35;;;;;;;3.03;2.10;;;18.00;99.90;;;;;;5000912;28;20460;-83
2022/06/25 02:49:02;;;;;;;4.00;2.60;;;18.00;99.90;;;;;;5001672;28;20486;-83
2022/06/25 02:51:29;;;;;;;5.30;2.53;;;18.00;99.90;;;;;;5001112;28;20455;-80
2022/06/25 02:53:56;;;;;;;4.20;3.30;;;18.00;99.90;;;;;;5001437;28;20507;-82
2022/06/25 02:59:08;;;;;;;5.60;2.60;;;17.90;99.90;;;;;;5000870;28;20557;-82
2022/06/25 03:01:36;;;;;;;7.40;2.70;;;17.90;99.90;;;;;;4999551;28;20882;-82
2022/06/25 03:04:03;;;;;;;7.20;2.80;;;17.90;99.90;;;;;;4999537;28;20508;-82
2022/06/25 03:06:30;;;;;;;4.73;2.67;;;17.90;99.90;;;;;;5001464;28;20492;-81
2022/06/25 03:08:57;;;;;;;4.50;2.70;;;18.00;99.90;;;;;;4999740;28;21321;-81
2022/06/25 03:11:24;;;;;;;4.00;2.73;;;18.00;99.90;;;;;;5000549;28;20460;-82
2022/06/25 03:13:51;;;;;;;3.60;2.67;;;17.90;99.90;;;;;;5011132;28;20577;-82
2022/06/25 03:16:18;;;;;;;4.53;2.73;;;17.90;99.90;;;;;;5003332;28;20467;-82
2022/06/25 03:18:46;;;;;;;4.93;3.27;;;17.90;99.90;;;;;;5001411;28;20541;-83
2022/06/25 03:21:13;;;;;;;4.57;2.50;;;18.00;99.90;;;;;;4999129;28;20462;-82
2022/06/25 03:23:39;;;;;;;5.00;2.83;;;18.00;99.90;;;;;;5000114;28;20456;-82
2022/06/25 03:26:06;;;;;;;5.53;2.63;;;18.00;99.90;;;;;;4999758;28;20458;-82
2022/06/25 03:28:33;;;;;;;3.90;2.63;;;18.00;99.90;;;;;;5000778;28;20514;-81
2022/06/25 03:31:00;;;;;;;4.53;2.97;;;17.90;99.90;;;;;;4999329;28;20455;-82
2022/06/25 03:33:27;;;;;;;6.47;3.30;;;17.90;99.90;;;;;;4999385;28;20549;-82
2022/06/25 03:35:55;;;;;;;6.17;3.27;;;17.90;99.90;;;;;;4998907;28;20466;-83
2022/06/25 03:38:22;;;;;;;4.20;2.47;;;17.90;99.90;;;;;;4999963;28;20491;-81
2022/06/25 03:40:49;;;;;;;2.97;2.37;;;17.90;99.90;;;;;;4998850;28;20468;-82
2022/06/25 03:43:16;;;;;;;8.90;2.83;;;17.90;99.90;;;;;;4999133;28;20545;-83
2022/06/25 03:45:43;;;;;;;3.90;2.60;;;18.00;99.90;;;;;;4998450;28;20452;-82
2022/06/25 03:48:09;;;;;;;5.43;3.10;;;18.00;99.90;;;;;;4999440;28;20463;-82
2022/06/25 03:50:36;;;;;;;3.17;2.20;;;18.00;99.90;;;;;;4997976;28;20538;-82
2022/06/25 03:53:04;;;;;;;3.63;2.33;;;18.00;99.90;;;;;;5000519;28;20507;-83
2022/06/25 03:55:31;;;;;;;3.57;2.10;;;18.00;99.90;;;;;;4998409;28;20841;-82
2022/06/25 03:57:58;;;;;;;3.37;2.60;;;18.10;99.90;;;;;;4999054;28;20456;-83
2022/06/25 04:00:25;;;;;;;6.33;2.40;;;18.10;99.90;;;;;;4994839;28;20561;-81
2022/06/25 04:02:52;;;;;;;3.33;2.80;;;18.10;99.90;;;;;;4998595;28;20543;-81
2022/06/25 04:05:19;;;;;;;3.10;2.40;;;18.10;99.90;;;;;;4997762;28;21059;-82
2022/06/25 04:07:46;;;;;;;3.87;2.70;;;18.10;99.90;;;;;;4996915;28;20550;-80
2022/06/25 04:10:14;;;;;;;2.77;2.07;;;18.20;99.90;;;;;;4996782;28;20560;-82
2022/06/25 04:12:41;;;;;;;4.27;2.70;;;18.10;99.90;;;;;;4996951;28;20575;-84
2022/06/25 04:15:08;;;;;;;3.43;2.30;;;18.10;99.90;;;;;;5012140;28;20452;-82
2022/06/25 04:17:35;;;;;;;3.20;2.37;;;18.20;99.90;;;;;;4998701;28;20480;-82
2022/06/25 04:20:03;;;;;;;5.93;2.40;;;18.20;99.90;;;;;;4998923;28;20533;-82
2022/06/25 04:22:29;;;;;;;4.27;2.20;;;18.10;99.90;;;;;;5001716;28;20452;-79
2022/06/25 04:24:56;;;;;;;3.40;2.60;;;18.20;99.90;;;;;;5006667;28;20832;-80
2022/06/25 04:30:10;;;;;;;7.10;2.43;;;18.40;99.90;;;;;;4994245;28;20488;-83
2022/06/25 04:32:37;;;;;;;3.43;2.17;;;18.40;99.90;;;;;;4998339;28;21124;-81
2022/06/25 04:35:04;;;;;;;3.53;2.60;;;18.40;99.90;;;;;;5003217;28;20976;-80
2022/06/25 04:37:31;;;;;;;4.60;2.10;;;18.50;99.90;;;;;;5005658;28;20516;-79
2022/06/25 04:39:58;;;;;;;3.00;2.30;;;18.40;99.90;;;;;;4995983;28;20541;-80
2022/06/25 04:42:26;;;;;;;2.50;2.00;;;18.50;99.90;;;;;;4997131;28;20522;-80
2022/06/25 04:44:53;;;;;;;3.50;2.13;;;18.60;99.90;;;;;;4997160;28;20982;-81
2022/06/25 04:47:20;;;;;;;8.23;2.17;;;18.60;99.90;;;;;;4997640;28;20445;-80
2022/06/25 04:49:47;;;;;;;2.90;2.20;;;18.60;99.90;;;;;;4997389;28;20515;-80
2022/06/25 04:52:14;;;;;;;5.07;1.97;;;18.70;99.90;;;;;;4997625;28;20457;-80
2022/06/25 04:54:41;;;;;;;5.20;2.50;;;18.80;99.90;;;;;;4997498;28;21035;-81
2022/06/25 04:57:08;;;;;;;3.20;2.20;;;18.80;99.90;;;;;;4996915;28;20547;-81
2022/06/25 04:59:36;;;;;;;5.70;2.23;;;18.90;99.90;;;;;;4996851;28;20495;-80
2022/06/25 05:02:03;;;;;;;3.70;2.03;;;19.00;99.90;;;;;;4999078;28;20548;-80
2022/06/25 05:04:30;;;;;;;5.83;2.30;;;18.90;99.90;;;;;;5011283;28;20565;-79
2022/06/25 05:06:56;;;;;;;4.07;2.50;;;19.00;99.90;;;;;;5015355;28;20510;-79
2022/06/25 05:09:23;;;;;;;3.07;2.20;;;19.00;99.90;;;;;;5006553;28;20473;-81
2022/06/25 05:11:51;;;;;;;5.53;2.70;;;19.00;99.90;;;;;;4997701;28;21018;-80
2022/06/25 05:14:17;;;;;;;2.87;2.03;;;19.10;99.90;;;;;;4996687;28;20576;-81
2022/06/25 05:16:46;;;;;;;3.77;1.90;;;19.20;99.90;;;;;;4996601;28;20911;-80
2022/06/25 05:19:13;;;;;;;2.57;1.97;;;19.30;99.90;;;;;;4996068;28;20478;-81
2022/06/25 05:21:40;;;;;;;2.97;2.27;;;19.40;99.90;;;;;;4995872;28;20545;-81
2022/06/25 05:24:07;;;;;;;3.17;2.40;;;19.40;99.90;;;;;;4995252;28;20486;-82
2022/06/25 05:26:34;;;;;;;3.27;2.47;;;19.40;99.90;;;;;;4994975;28;20486;-79
2022/06/25 05:29:01;;;;;;;3.10;1.80;;;19.40;99.90;;;;;;4995734;28;20575;-82
2022/06/25 05:31:28;;;;;;;3.33;2.20;;;19.50;99.90;;;;;;4998581;28;20505;-81
2022/06/25 05:33:56;;;;;;;4.00;2.10;;;19.50;99.90;;;;;;4999872;28;20508;-82
2022/06/25 05:36:23;;;;;;;3.03;1.90;;;19.50;99.90;;;;;;4999143;28;20452;-82
2022/06/25 05:38:50;;;;;;;3.70;2.13;;;19.60;99.90;;;;;;4995830;28;20576;-81
2022/06/25 05:41:17;;;;;;;6.10;2.70;;;19.60;99.90;;;;;;4996111;28;20453;-81
2022/06/25 05:43:44;;;;;;;5.73;1.53;;;19.70;99.90;;;;;;4997836;28;20536;-83
2022/06/25 05:46:10;;;;;;;2.73;2.30;;;19.70;99.90;;;;;;5000051;28;20492;-81
2022/06/25 05:48:37;;;;;;;2.83;2.40;;;19.80;99.90;;;;;;4998256;28;20509;-82
2022/06/25 05:51:06;;;;;;;3.00;2.27;;;19.90;99.90;;;;;;4996658;28;20517;-83
2022/06/25 05:53:32;;;;;;;5.13;2.43;;;19.90;99.90;;;;;;4997615;28;20569;-82
2022/06/25 05:55:59;;;;;;;7.03;2.27;;;19.90;99.90;;;;;;4998216;28;20553;-81
2022/06/25 05:58:26;;;;;;;3.03;2.20;;;20.00;99.90;;;;;;4998027;28;20481;-81
2022/06/25 06:00:53;;;;;;;3.40;2.23;;;20.10;99.90;;;;;;4997709;28;20533;-83
2022/06/25 06:03:20;;;;;;;4.93;2.57;;;20.10;99.90;;;;;;4997715;28;20538;-81
2022/06/25 06:05:47;;;;;;;3.40;2.50;;;20.20;99.90;;;;;;4996114;28;20505;-81
2022/06/25 06:08:15;;;;;;;3.00;2.10;;;20.20;99.90;;;;;;5001166;28;20454;-83
2022/06/25 06:10:42;;;;;;;3.17;2.10;;;20.20;99.90;;;;;;5016019;28;20463;-82
2022/06/25 06:13:09;;;;;;;4.43;2.33;;;20.30;99.90;;;;;;4998102;28;20520;-84
2022/06/25 06:15:36;;;;;;;4.50;2.20;;;20.40;99.90;;;;;;5003200;28;20461;-83
2022/06/25 06:18:03;;;;;;;2.43;1.93;;;20.40;99.90;;;;;;4995954;28;20454;-82
2022/06/25 06:20:30;;;;;;;5.20;2.13;;;20.50;99.90;;;;;;4996769;28;20450;-83
2022/06/25 06:22:57;;;;;;;6.33;2.00;;;20.50;99.90;;;;;;4998324;28;20494;-83
2022/06/25 06:25:25;;;;;;;3.63;2.17;;;20.50;99.90;;;;;;5000240;28;20461;-83
2022/06/25 06:27:53;;;;;;;4.80;2.40;;;20.60;99.90;;;;;;4996103;28;20542;-82
2022/06/25 06:30:19;;;;;;;4.20;2.10;;;20.70;99.90;;;;;;4995441;28;20544;-84
2022/06/25 06:32:47;;;;;;;3.47;1.97;;;20.60;99.90;;;;;;4998898;28;20537;-82
2022/06/25 06:35:14;;;;;;;3.43;1.87;;;20.70;99.90;;;;;;4998477;28;20453;-84
2022/06/25 06:37:40;;;;;;;2.40;1.60;;;20.70;99.90;;;;;;5018273;28;20438;-87
2022/06/25 06:40:09;;;;;;;3.73;2.10;;;20.80;99.90;;;;;;5007745;28;21006;-84
2022/06/25 06:42:37;;;;;;;3.13;1.90;;;20.90;99.90;;;;;;5004436;28;20462;-82
2022/06/25 06:45:05;;;;;;;4.50;1.97;;;20.90;99.90;;;;;;5007891;28;20470;-83
2022/06/25 06:47:32;;;;;;;3.70;2.03;;;20.90;99.90;;;;;;5007520;28;20824;-83
2022/06/25 06:49:59;;;;;;;3.47;2.10;;;21.10;99.90;;;;;;5002467;28;20840;-82
2022/06/25 06:52:26;;;;;;;3.77;2.00;;;21.10;99.90;;;;;;5000727;28;20884;-82
2022/06/25 06:54:53;;;;;;;8.33;1.97;;;21.20;99.90;;;;;;4995833;28;20965;-82
2022/06/25 06:57:20;;;;;;;3.63;1.90;;;21.10;99.90;;;;;;5000023;28;20462;-82
2022/06/25 06:59:48;;;;;;;4.57;2.10;;;21.20;99.90;;;;;;5008694;28;20498;-84
2022/06/25 07:02:15;;;;;;;4.00;2.27;;;21.30;99.90;;;;;;5008598;28;20496;-83
2022/06/25 07:04:42;;;;;;;4.10;2.40;;;21.30;99.90;;;;;;5012057;28;20467;-85
2022/06/25 07:07:09;;;;;;;3.30;1.87;;;21.40;99.90;;;;;;5018228;28;20963;-82
2022/06/25 07:09:36;;;;;;;6.33;2.70;;;21.50;99.90;;;;;;5012259;28;20489;-85
2022/06/25 07:12:03;;;;;;;4.37;2.20;;;21.50;99.90;;;;;;5025217;28;20485;-84
2022/06/25 07:14:29;;;;;;;5.07;1.97;;;21.60;99.90;;;;;;5018477;28;20481;-83
2022/06/25 07:16:58;;;;;;;3.40;2.17;;;21.70;99.90;;;;;;5016824;28;20464;-83
2022/06/25 07:19:24;;;;;;;5.57;2.27;;;21.70;99.90;;;;;;5009799;28;20498;-83
2022/06/25 07:21:52;;;;;;;4.60;2.00;;;21.70;99.90;;;;;;5007732;28;20447;-83
2022/06/25 07:24:19;;;;;;;9.23;1.67;;;21.90;99.90;;;;;;5004010;28;20509;-84
2022/06/25 07:26:45;;;;;;;3.03;1.67;;;22.00;99.90;;;;;;5006240;28;20490;-83
2022/06/25 07:29:12;;;;;;;4.73;2.73;;;22.00;99.90;;;;;;5005057;28;20487;-84
2022/06/25 07:31:39;;;;;;;3.27;1.80;;;22.10;99.90;;;;;;5018012;28;20469;-83
2022/06/25 07:34:07;;;;;;;2.93;1.60;;;22.20;99.90;;;;;;5019705;28;20514;-83
2022/06/25 07:36:35;;;;;;;4.10;2.20;;;22.20;99.90;;;;;;5003358;28;20457;-81
2022/06/25 07:39:03;;;;;;;4.63;2.00;;;22.30;99.90;;;;;;5001984;28;20517;-83
2022/06/25 07:41:33;;;;;;;5.23;1.70;;;22.30;99.90;;;;;;5007317;28;20449;-82
2022/06/25 07:44:02;;;;;;;4.53;1.53;;;22.40;99.90;;;;;;5001946;28;20531;-80
2022/06/25 07:46:28;;;;;;;2.47;1.50;;;22.50;99.90;;;;;;5000703;28;20833;-82
2022/06/25 07:48:55;;;;;;;6.33;1.77;;;22.60;99.90;;;;;;5001320;28;20494;-84
2022/06/25 07:54:08;;;;;;;2.73;1.70;;;22.80;99.90;;;;;;5007947;28;20494;-83
2022/06/25 07:56:35;;;;;;;5.43;1.83;;;23.00;99.90;;;;;;5004082;28;20502;-85
2022/06/25 07:59:02;;;;;;;2.50;1.53;;;23.10;99.90;;;;;;4999302;28;20482;-84
2022/06/25 08:01:29;;;;;;;5.50;2.30;;;23.10;99.90;;;;;;5004404;28;20466;-82
2022/06/25 08:03:55;;;;;;;4.60;1.57;;;23.10;99.90;;;;;;5002199;28;20983;-84
2022/06/25 08:06:24;;;;;;;4.63;1.30;;;23.20;99.90;;;;;;4993984;28;20462;-85
2022/06/25 08:08:51;;;;;;;3.50;1.70;;;23.40;99.90;;;;;;5015478;28;20543;-84
2022/06/25 08:11:18;;;;;;;4.53;1.73;;;23.40;99.90;;;;;;5023008;28;20477;-84
2022/06/25 08:13:45;;;;;;;5.93;1.80;;;23.60;99.90;;;;;;5005669;28;20479;-84
2022/06/25 08:16:12;;;;;;;5.50;1.47;;;23.60;99.90;;;;;;4998816;28;20845;-83
2022/06/25 08:18:39;;;;;;;4.83;2.03;;;23.80;99.90;;;;;;5003725;28;20573;-83
2022/06/25 08:21:06;;;;;;;3.87;1.33;;;23.80;99.90;;;;;;5004797;28;20446;-81
2022/06/25 08:23:34;;;;;;;3.10;1.40;;;23.80;99.90;;;;;;5005799;28;20470;-82
2022/06/25 08:26:01;;;;;;;2.33;1.40;;;23.90;99.90;;;;;;5010583;28;20486;-83
2022/06/25 08:28:28;;;;;;;4.57;1.50;;;23.90;99.90;;;;;;5001130;28;20498;-81
2022/06/25 08:30:55;;;;;;;3.43;1.20;;;24.10;99.90;;;;;;4991841;28;20478;-83
2022/06/25 08:33:22;;;;;;;4.10;2.33;;;24.10;99.90;;;;;;5001986;28;20454;-79
2022/06/25 08:35:50;;;;;;;5.47;2.00;;;24.30;99.90;;;;;;4997279;28;21001;-82
2022/06/25 08:38:17;;;;;;;3.70;1.57;;;24.50;99.90;;;;;;5005086;28;20458;-79
2022/06/25 08:40:45;;;;;;;2.43;1.30;;;24.70;99.90;;;;;;5006024;28;20443;-81
2022/06/25 08:43:12;;;;;;;4.33;1.43;;;24.90;99.90;;;;;;4997243;28;20951;-79
2022/06/25 08:45:39;;;;;;;3.27;1.47;;;25.10;99.90;;;;;;4996591;28;20490;-81
2022/06/25 08:48:12;;;;;;;3.00;1.50;;;25.20;99.90;;;;;;5001359;28;20478;-79
2022/06/25 08:50:39;;;;;;;4.17;2.10;;;25.30;99.90;;;;;;5001042;28;20446;-77
2022/06/25 08:53:06;;;;;;;3.03;1.40;;;25.30;99.90;;;;;;4998221;28;20542;-81
2022/06/25 08:55:38;;;;;;;5.10;1.23;;;25.30;99.90;;;;;;4997723;28;20506;-79
2022/06/25 08:58:07;;;;;;;4.37;1.57;;;25.30;99.90;;;;;;4994930;28;20455;-81
2022/06/25 09:00:38;;;;;;;3.60;1.77;;;25.10;99.90;;;;;;4996779;28;20470;-82
2022/06/25 09:03:07;;;;;;;2.87;1.43;;;25.10;99.90;;;;;;4996776;28;20477;-81
2022/06/25 09:05:35;;;;;;;2.90;1.20;;;25.20;99.90;;;;;;4995481;28;20478;-81
2022/06/25 09:08:05;;;;;;;2.70;1.30;;;25.30;99.90;;;;;;4996606;28;20494;-81
2022/06/25 09:10:32;;;;;;;2.37;1.30;;;25.70;99.90;;;;;;4996542;28;20459;-83
2022/06/25 09:13:03;;;;;;;3.03;1.20;;;25.90;99.90;;;;;;4995404;28;20489;-84
2022/06/25 09:15:34;;;;;;;3.30;1.60;;;26.00;99.90;;;;;;4977570;28;20487;-80
2022/06/25 09:18:07;;;;;;;4.93;1.73;;;26.20;99.90;;;;;;4996332;28;20455;-81
2022/06/25 09:20:34;;;;;;;4.13;1.60;;;26.50;99.90;;;;;;4995067;28;20451;-81
2022/06/25 09:23:04;;;;;;;2.67;1.30;;;26.90;99.90;;;;;;4996362;28;20494;-82
2022/06/25 09:25:37;;;;;;;3.03;1.53;;;27.30;99.90;;;;;;4994362;28;20450;-81
2022/06/25 09:28:04;;;;;;;4.13;1.40;;;27.20;99.90;;;;;;4997520;28;20813;-81
2022/06/25 09:30:33;;;;;;;16.43;2.93;;;27.10;99.90;;;;;;4998459;28;20458;-81
2022/06/25 09:33:02;;;;;;;4.33;1.47;;;27.20;99.90;;;;;;4996902;28;20454;-81
2022/06/25 09:35:32;;;;;;;3.23;1.57;;;27.00;99.90;;;;;;4997202;28;21069;-79
2022/06/25 09:38:07;;;;;;;7.80;1.33;;;27.20;99.90;;;;;;4997889;28;20454;-79
2022/06/25 09:40:35;;;;;;;4.63;1.83;;;27.30;99.90;;;;;;4998278;28;20451;-82
2022/06/25 09:43:12;;;;;;;3.50;1.20;;;27.30;99.90;;;;;;4996432;28;20465;-82
2022/06/25 09:45:43;;;;;;;2.80;1.47;;;27.20;99.90;;;;;;4999789;28;20526;-80
2022/06/25 09:48:17;;;;;;;3.93;1.50;;;27.40;99.90;;;;;;4995619;28;20879;-82
2022/06/25 09:50:44;;;;;;;4.50;1.50;;;27.30;99.90;;;;;;4995753;28;20443;-82
2022/06/25 09:53:11;;;;;;;2.20;1.03;;;27.30;99.90;;;;;;4995086;28;20529;-81
2022/06/25 09:55:38;;;;;;;3.73;1.20;;;27.10;99.90;;;;;;4994474;28;20513;-81
2022/06/25 09:58:05;;;;;;;4.93;1.53;;;27.20;99.90;;;;;;4996558;28;20541;-80
2022/06/25 10:00:33;;;;;;;3.70;1.60;;;27.20;99.90;;;;;;4997680;28;20455;-81
2022/06/25 10:03:02;;;;;;;2.67;1.40;;;27.20;99.90;;;;;;4997460;28;20460;-81
2022/06/25 10:05:34;;;;;;;2.73;1.53;;;27.60;99.90;;;;;;4996874;28;20547;-79
2022/06/25 10:08:07;;;;;;;3.70;1.37;;;27.60;99.90;;;;;;4994953;28;20529;-80
2022/06/25 10:10:38;;;;;;;7.83;1.63;;;27.60;99.90;;;;;;5000044;28;20439;-80
2022/06/25 10:13:05;;;;;;;6.20;1.70;;;27.70;99.90;;;;;;4999972;28;20453;-80
2022/06/25 10:15:32;;;;;;;4.77;1.60;;;27.60;99.90;;;;;;4997811;28;20487;-81
2022/06/25 10:18:03;;;;;;;3.50;1.30;;;27.40;99.90;;;;;;4999191;28;20541;-82
2022/06/25 10:20:31;;;;;;;3.50;1.27;;;27.30;99.90;;;;;;4999528;28;20450;-83
2022/06/25 10:23:02;;;;;;;3.03;1.10;;;27.00;99.90;;;;;;4986436;28;20497;-81
2022/06/25 10:25:31;;;;;;;3.37;1.20;;;27.10;99.90;;;;;;4999779;28;20501;-82
2022/06/25 10:28:08;;;;;;;3.50;1.40;;;27.10;99.90;;;;;;4999326;28;20542;-83
2022/06/25 10:30:39;;;;;;;3.53;1.43;;;27.10;99.90;;;;;;4998464;28;21057;-79
2022/06/25 10:33:08;;;;;;;4.20;1.37;;;27.00;99.90;;;;;;4999785;28;20517;-82
2022/06/25 10:35:37;;;;;;;6.17;1.50;;;27.10;99.90;;;;;;4998475;28;20485;-80
2022/06/25 10:38:07;;;;;;;4.40;1.40;;;27.00;99.90;;;;;;4999666;28;20455;-80
2022/06/25 10:40:45;;;;;;;4.63;1.53;;;26.70;99.90;;;;;;5003993;28;20545;-79
2022/06/25 10:43:37;;;;;;;3.10;1.27;;;26.30;99.90;;;;;;5003782;28;20486;-79
2022/06/25 10:46:28;;;;;;;5.77;1.73;;;26.10;99.90;;;;;;4998011;28;20509;-80
2022/06/25 10:49:06;;;;;;;4.33;1.87;;;25.70;99.90;;;;;;4997431;28;20477;-81
2022/06/25 10:51:40;;;;;;;3.17;1.83;;;26.00;99.90;;;;;;4997220;28;20462;-79
2022/06/25 10:54:12;;;;;;;4.67;1.60;;;26.90;99.90;;;;;;4997750;28;20541;-79
2022/06/25 10:56:45;;;;;;;2.60;1.50;;;27.80;99.90;;;;;;4996760;28;20535;-79
2022/06/25 10:59:46;;;;;;;3.17;1.70;;;28.60;99.90;;;;;;4981839;28;20481;-79
2022/06/25 11:02:15;;;;;;;3.93;1.50;;;29.50;99.90;;;;;;4997731;28;20454;-79
2022/06/25 11:04:52;;;;;;;3.60;1.50;;;30.10;99.90;;;;;;4994618;28;20473;-78
2022/06/25 11:07:20;;;;;;;4.00;1.33;;;30.60;99.90;;;;;;4995269;28;20464;-79
2022/06/25 11:09:56;;;;;;;4.93;1.50;;;31.00;99.90;;;;;;5000252;28;20545;-80
2022/06/25 11:12:23;;;;;;;8.70;1.50;;;31.60;99.90;;;;;;4993167;28;20545;-80
2022/06/25 11:15:00;;;;;;;3.90;1.20;;;31.30;99.90;;;;;;4994617;28;20504;-81
2022/06/25 11:17:27;;;;;;;4.33;1.53;;;31.40;99.90;;;;;;4992915;28;20450;-77
2022/06/25 11:20:02;;;;;;;4.43;1.40;;;31.00;99.90;;;;;;5003853;28;20556;-79
2022/06/25 11:22:29;;;;;;;5.07;1.50;;;31.10;99.90;;;;;;5007231;28;20450;-80
2022/06/25 11:30:28;;;;;;;3.20;1.67;;;31.00;98.90;;;;;;5000329;28;20481;-81
2022/06/25 11:32:55;;;;;;;3.37;1.87;;;31.20;99.90;;;;;;4998974;28;21297;-81
2022/06/25 11:35:37;;;;;;;3.17;1.50;;;31.50;99.40;;;;;;4998593;28;20548;-84
2022/06/25 11:38:15;;;;;;;2.90;1.37;;;31.50;97.20;;;;;;4998711;28;20526;-80
2022/06/25 11:40:46;;;;;;;3.57;1.50;;;30.40;96.10;;;;;;4999760;28;20958;-80
2022/06/25 11:43:16;;;;;;;5.03;1.37;;;29.90;99.90;;;;;;4995120;28;20915;-82
2022/06/25 11:45:51;;;;;;;8.53;1.60;;;29.40;96.80;;;;;;4998666;28;20457;-81
2022/06/25 11:48:18;;;;;;;3.20;1.57;;;28.90;99.90;;;;;;5010439;28;20520;-80
2022/06/25 11:50:47;;;;;;;3.20;1.47;;;28.60;98.80;;;;;;4998225;28;20502;-82
2022/06/25 11:53:13;;;;;;;3.33;1.50;;;28.40;99.90;;;;;;4997893;28;20541;-83
2022/06/25 11:55:41;;;;;;;3.60;1.23;;;29.00;99.90;;;;;;4996288;28;20518;-81
2022/06/25 11:58:07;;;;;;;5.87;1.63;;;29.70;99.90;;;;;;5001246;28;20549;-82
2022/06/25 12:00:34;;;;;;;2.90;1.63;;;29.20;99.90;;;;;;5000977;28;20542;-82
2022/06/25 12:03:02;;;;;;;2.93;1.50;;;28.80;99.90;;;;;;5013001;28;21038;-82
2022/06/25 12:05:29;;;;;;;3.40;1.40;;;28.50;99.90;;;;;;5000037;28;21044;-81
2022/06/25 12:07:58;;;;;;;3.87;1.43;;;28.80;99.90;;;;;;4997936;28;20465;-80
2022/06/25 12:10:26;;;;;;;3.40;1.53;;;29.80;99.90;;;;;;4999916;28;20521;-82
2022/06/25 12:12:53;;;;;;;2.50;1.27;;;30.20;99.90;;;;;;4995909;28;20546;-78
2022/06/25 12:15:28;;;;;;;2.53;1.20;;;30.20;99.90;;;;;;4993417;28;20497;-81
2022/06/25 12:18:04;;;;;;;2.87;1.40;;;30.40;99.90;;;;;;4990152;28;20542;-82
2022/06/25 12:20:30;;;;;;;3.80;1.20;;;30.40;99.60;;;;;;5006678;28;20462;-83
2022/06/25 12:23:00;;;;;;;4.40;1.70;;;29.90;99.90;;;;;;5005322;28;20467;-79
2022/06/25 12:25:28;;;;;;;5.10;1.67;;;29.10;96.40;;;;;;4996974;28;20458;-81
2022/06/25 12:27:55;;;;;;;4.67;1.67;;;28.70;97.70;;;;;;4994936;28;20564;-82
2022/06/25 12:30:23;;;;;;;2.57;1.30;;;28.70;99.90;;;;;;5008436;28;20572;-82
2022/06/25 12:32:51;;;;;;;2.73;1.20;;;29.30;99.00;;;;;;5001471;28;20460;-80
2022/06/25 12:35:19;;;;;;;7.97;1.77;;;30.10;97.20;;;;;;5006934;28;20500;-82
2022/06/25 12:38:01;;;;;;;3.40;1.30;;;31.10;99.90;;;;;;4996333;28;20572;-81
2022/06/25 12:40:31;;;;;;;5.70;1.23;;;31.80;95.80;;;;;;5007431;28;20443;-82
2022/06/25 12:43:00;;;;;;;4.70;1.07;;;32.00;97.40;;;;;;5010200;28;20446;-81
2022/06/25 12:45:30;;;;;;;4.00;1.67;;;32.30;91.70;;;;;;4998605;28;20470;-83
2022/06/25 12:47:57;;;;;;;4.57;1.90;;;32.10;92.60;;;;;;5002861;28;20534;-84
2022/06/25 12:50:26;;;;;;;3.47;1.63;;;32.40;90.70;;;;;;5001564;28;20484;-80
2022/06/25 12:52:54;;;;;;;3.17;1.20;;;32.40;92.70;;;;;;5000841;28;20450;-81
2022/06/25 12:55:25;;;;;;;5.30;1.53;;;32.60;90.50;;;;;;5001885;28;20529;-82
2022/06/25 12:57:54;;;;;;;2.60;1.20;;;33.10;88.90;;;;;;4999886;28;20509;-84
2022/06/25 13:00:37;;;;;;;3.07;1.57;;;33.50;92.70;;;;;;5039888;23;21887;-80
2022/06/25 13:13:17;;;;;;;3.53;1.50;;;31.80;90.20;;;;;;4803450;29;20891;-80
2022/06/25 13:15:45;;;;;;;2.67;1.27;;;30.60;84.80;;;;;;4861561;29;20508;-80
2022/06/25 13:18:17;;;;;;;3.40;1.63;;;29.70;86.20;;;;;;4961639;28;20530;-81
2022/06/25 13:20:46;;;;;;;2.93;1.20;;;29.10;88.80;;;;;;5012934;28;20539;-81
2022/06/25 13:23:13;;;;;;;3.33;1.20;;;28.70;91.20;;;;;;5007156;28;20470;-82